createdAt,value
2023-04-27T00:00:36.265Z,3.15
2023-04-27T00:03:21.799Z,3.75
2023-04-27T00:06:09.119Z,4.40
2023-04-27T00:08:54.434Z,3.80
2023-04-27T00:12:11.193Z,3.38
2023-04-27T00:14:56.516Z,5.07
2023-04-27T00:17:43.508Z,4.45
2023-04-27T00:20:28.563Z,4.03
2023-04-27T00:23:13.951Z,3.80
2023-04-27T00:25:59.163Z,3.38
2023-04-27T00:28:44.484Z,4.07
2023-04-27T00:31:29.854Z,3.90
2023-04-27T00:34:15.172Z,3.58
2023-04-27T00:37:00.454Z,3.25
2023-04-27T00:39:45.765Z,3.80
2023-04-27T00:42:31.168Z,3.55
2023-04-27T00:45:16.633Z,4.03
2023-04-27T00:48:01.814Z,3.60
2023-04-27T00:50:47.200Z,3.50
2023-04-27T00:53:33.166Z,4.78
2023-04-27T00:56:18.607Z,4.13
2023-04-27T00:59:03.992Z,3.95
2023-04-27T01:01:50.051Z,4.13
2023-04-27T01:04:36.976Z,3.50
2023-04-27T01:07:26.874Z,3.78
2023-04-27T01:10:12.000Z,3.50
2023-04-27T01:12:57.681Z,3.97
2023-04-27T01:15:42.795Z,3.60
2023-04-27T01:18:27.976Z,3.95
2023-04-27T01:21:13.255Z,3.50
2023-04-27T01:23:58.538Z,4.22
2023-04-27T01:26:43.763Z,3.33
2023-04-27T01:29:29.411Z,4.53
2023-04-27T01:32:14.527Z,3.50
2023-04-27T01:34:59.646Z,4.13
2023-04-27T01:37:44.907Z,3.47
2023-04-27T01:40:30.592Z,3.70
2023-04-27T01:43:16.123Z,3.83
2023-04-27T01:46:13.134Z,3.65
2023-04-27T01:48:58.707Z,4.43
2023-04-27T01:51:44.072Z,3.80
2023-04-27T01:54:29.348Z,4.28
2023-04-27T01:57:14.796Z,3.72
2023-04-27T02:00:00.274Z,4.10
2023-04-27T02:02:45.998Z,4.32
2023-04-27T02:05:31.506Z,4.18
2023-04-27T02:08:16.869Z,4.13
2023-04-27T02:11:02.205Z,4.10
2023-04-27T02:13:48.869Z,4.75
2023-04-27T02:16:33.982Z,4.05
2023-04-27T02:19:19.348Z,4.13
2023-04-27T02:22:04.551Z,3.63
2023-04-27T02:24:49.831Z,3.95
2023-04-27T02:27:40.871Z,4.10
2023-04-27T02:30:26.311Z,4.15
2023-04-27T02:33:12.305Z,3.92
2023-04-27T02:35:57.498Z,3.75
2023-04-27T02:38:42.608Z,3.75
2023-04-27T02:41:31.997Z,3.97
2023-04-27T02:44:17.171Z,4.50
2023-04-27T02:47:02.703Z,4.45
2023-04-27T02:49:47.886Z,3.83
2023-04-27T02:52:33.111Z,4.47
2023-04-27T02:55:18.359Z,4.07
2023-04-27T02:58:03.970Z,4.47
2023-04-27T03:00:54.396Z,4.03
2023-04-27T03:03:39.519Z,3.90
2023-04-27T03:06:24.584Z,3.78
2023-04-27T03:09:16.115Z,3.72
2023-04-27T03:12:02.651Z,4.40
2023-04-27T03:14:47.865Z,5.03
2023-04-27T03:17:32.871Z,4.68
2023-04-27T03:20:18.114Z,3.45
2023-04-27T03:23:03.474Z,5.00
2023-04-27T03:25:49.325Z,3.88
2023-04-27T03:28:35.264Z,4.13
2023-04-27T03:31:20.512Z,3.80
2023-04-27T03:34:05.852Z,3.85
2023-04-27T03:36:51.232Z,3.92
2023-04-27T03:39:36.450Z,4.25
2023-04-27T03:42:22.265Z,3.72
2023-04-27T03:45:08.244Z,3.47
2023-04-27T03:47:53.816Z,4.32
2023-04-27T03:50:38.992Z,3.75
2023-04-27T03:53:24.294Z,3.75
2023-04-27T03:56:09.665Z,3.53
2023-04-27T03:58:55.002Z,3.60
2023-04-27T04:01:41.356Z,4.18
2023-04-27T04:04:26.577Z,3.70
2023-04-27T04:07:12.050Z,4.43
2023-04-27T04:09:57.019Z,4.13
2023-04-27T04:12:42.256Z,4.07
2023-04-27T04:15:27.860Z,4.45
2023-04-27T04:18:13.119Z,4.13
2023-04-27T04:20:58.467Z,3.78
2023-04-27T04:23:43.815Z,4.05
2023-04-27T04:26:29.078Z,3.35
2023-04-27T04:29:14.660Z,4.75
2023-04-27T04:32:00.249Z,3.70
2023-04-27T04:34:51.826Z,4.28
2023-04-27T04:37:37.296Z,3.67
2023-04-27T04:40:22.610Z,4.05
2023-04-27T04:43:08.140Z,3.90
2023-04-27T04:45:53.368Z,3.47
2023-04-27T04:48:38.856Z,3.67
2023-04-27T04:51:24.053Z,3.65
2023-04-27T04:54:09.936Z,3.38
2023-04-27T04:56:55.285Z,4.20
2023-04-27T04:59:41.200Z,4.60
2023-04-27T05:02:26.532Z,4.00
2023-04-27T05:05:11.862Z,3.42
2023-04-27T05:07:57.073Z,5.20
2023-04-27T05:10:42.467Z,4.70
2023-04-27T05:13:28.119Z,4.60
2023-04-27T05:16:13.418Z,3.97
2023-04-27T05:18:58.877Z,5.03
2023-04-27T05:21:47.471Z,3.75
2023-04-27T05:24:33.417Z,3.97
2023-04-27T05:27:18.592Z,3.80
2023-04-27T05:30:04.094Z,3.72
2023-04-27T05:32:49.191Z,4.25
2023-04-27T05:35:34.810Z,4.03
2023-04-27T05:38:20.080Z,4.00
2023-04-27T05:41:05.225Z,3.97
2023-04-27T05:43:51.405Z,7.05
2023-04-27T05:46:38.700Z,6.28
2023-04-27T05:49:24.037Z,7.05
2023-04-27T05:52:08.983Z,4.63
2023-04-27T05:54:54.235Z,4.70
2023-04-27T05:57:39.747Z,4.82
2023-04-27T06:00:25.955Z,5.55
2023-04-27T06:03:11.328Z,9.18
2023-04-27T06:05:59.123Z,13.38
2023-04-27T06:08:44.685Z,9.68
2023-04-27T06:11:29.908Z,6.50
2023-04-27T06:14:15.169Z,6.95
2023-04-27T06:17:00.398Z,7.43
2023-04-27T06:19:46.090Z,7.55
2023-04-27T06:22:31.323Z,8.70
2023-04-27T06:25:16.656Z,7.00
2023-04-27T06:28:01.999Z,7.25
2023-04-27T06:30:47.339Z,6.38
2023-04-27T06:33:32.966Z,6.72
2023-04-27T06:36:18.188Z,5.22
2023-04-27T06:39:03.534Z,4.55
2023-04-27T06:41:48.901Z,5.20
2023-04-27T06:44:34.234Z,3.97
2023-04-27T06:47:19.682Z,4.22
2023-04-27T06:50:05.440Z,3.13
2023-04-27T06:52:50.686Z,3.50
2023-04-27T06:55:36.145Z,3.40
2023-04-27T06:58:22.247Z,4.15
2023-04-27T07:01:07.693Z,3.80
2023-04-27T07:03:53.085Z,3.15
2023-04-27T07:06:38.322Z,2.63
2023-04-27T07:09:27.583Z,3.20
2023-04-27T07:12:12.983Z,5.25
2023-04-27T07:14:58.216Z,3.05
2023-04-27T07:17:43.656Z,5.13
2023-04-27T07:20:28.729Z,2.75
2023-04-27T07:23:14.007Z,3.13
2023-04-27T07:25:59.352Z,2.80
2023-04-27T07:28:44.827Z,2.55
2023-04-27T07:31:30.185Z,1.95
2023-04-27T07:34:15.511Z,3.08
2023-04-27T07:37:01.716Z,2.35
2023-04-27T07:39:46.810Z,2.13
2023-04-27T07:42:31.805Z,2.92
2023-04-27T07:45:19.885Z,2.60
2023-04-27T07:48:06.087Z,2.30
2023-04-27T07:50:51.474Z,2.88
2023-04-27T07:53:36.837Z,2.92
2023-04-27T07:56:22.215Z,3.03
2023-04-27T07:59:07.620Z,2.63
2023-04-27T08:01:54.407Z,2.47
2023-04-27T08:04:42.699Z,2.70
2023-04-27T08:07:29.246Z,2.70
2023-04-27T08:10:15.808Z,2.85
2023-04-27T08:13:01.279Z,2.40
2023-04-27T08:15:46.606Z,2.50
2023-04-27T08:18:31.826Z,2.50
2023-04-27T08:21:17.317Z,1.90
2023-04-27T08:24:03.474Z,2.50
2023-04-27T08:26:48.826Z,2.30
2023-04-27T08:29:34.602Z,2.38
2023-04-27T08:32:20.306Z,1.92
2023-04-27T08:35:06.364Z,2.80
2023-04-27T08:37:51.346Z,2.63
2023-04-27T08:40:41.807Z,2.80
2023-04-27T08:43:26.959Z,2.70
2023-04-27T08:46:12.316Z,2.92
2023-04-27T08:48:57.783Z,3.00
2023-04-27T08:51:43.817Z,3.22
2023-04-27T08:54:28.973Z,3.17
2023-04-27T08:57:15.840Z,3.05
2023-04-27T09:00:01.370Z,10.23
2023-04-27T09:02:48.195Z,11.95
2023-04-27T09:05:34.114Z,4.43
2023-04-27T09:08:19.631Z,3.30
2023-04-27T09:11:05.137Z,3.25
2023-04-27T09:13:50.667Z,3.10
2023-04-27T09:16:35.832Z,3.40
2023-04-27T09:19:26.100Z,3.45
2023-04-27T09:22:11.914Z,3.17
2023-04-27T09:24:56.942Z,3.70
2023-04-27T09:27:44.459Z,3.13
2023-04-27T09:30:30.147Z,2.58
2023-04-27T09:33:15.610Z,2.85
2023-04-27T09:36:03.777Z,2.10
2023-04-27T09:38:49.847Z,2.80
2023-04-27T09:41:36.046Z,3.25
2023-04-27T09:44:21.181Z,2.40
2023-04-27T09:47:07.529Z,5.13
2023-04-27T09:49:52.866Z,2.70
2023-04-27T09:52:38.151Z,2.40
2023-04-27T09:55:51.680Z,3.70
2023-04-27T09:58:54.677Z,3.22
2023-04-27T10:01:47.049Z,3.65
2023-04-27T10:05:11.973Z,3.00
2023-04-27T10:07:57.618Z,2.80
2023-04-27T10:10:53.337Z,4.40
2023-04-27T10:13:38.491Z,3.20
2023-04-27T10:16:24.044Z,3.00
2023-04-27T10:19:10.096Z,2.85
2023-04-27T10:22:07.932Z,3.05
2023-04-27T10:24:53.361Z,2.80
2023-04-27T10:27:40.092Z,3.42
2023-04-27T10:30:37.376Z,2.63
2023-04-27T10:33:23.370Z,3.25
2023-04-27T10:36:14.746Z,2.70
2023-04-27T10:39:00.698Z,2.33
2023-04-27T10:41:56.845Z,2.20
2023-04-27T10:44:42.467Z,2.53
2023-04-27T10:47:39.675Z,2.67
2023-04-27T10:50:25.475Z,2.17
2023-04-27T10:53:10.884Z,2.50
2023-04-27T10:55:56.664Z,2.47
2023-04-27T10:58:48.965Z,2.47
2023-04-27T11:01:35.505Z,2.97
2023-04-27T11:04:20.962Z,3.55
2023-04-27T11:07:10.253Z,2.92
2023-04-27T11:09:55.848Z,4.65
2023-04-27T11:12:41.224Z,3.13
2023-04-27T11:15:26.747Z,2.67
2023-04-27T11:18:12.348Z,2.35
2023-04-27T11:21:09.684Z,2.78
2023-04-27T11:23:54.980Z,3.90
2023-04-27T11:26:40.398Z,3.60
2023-04-27T11:29:25.882Z,3.03
2023-04-27T11:32:21.739Z,3.05
2023-04-27T11:35:07.406Z,2.35
2023-04-27T11:38:01.716Z,2.42
2023-04-27T11:40:47.881Z,3.72
2023-04-27T11:43:34.150Z,2.50
2023-04-27T11:46:22.522Z,2.65
2023-04-27T11:49:10.977Z,2.38
2023-04-27T11:51:57.554Z,3.38
2023-04-27T11:54:56.285Z,3.55
2023-04-27T12:00:27.354Z,4.85
2023-04-27T12:03:13.065Z,2.88
2023-04-27T12:06:11.380Z,4.43
2023-04-27T12:09:02.207Z,3.60
2023-04-27T12:11:47.419Z,3.60
2023-04-27T12:14:32.885Z,2.80
2023-04-27T12:17:18.517Z,3.53
2023-04-27T12:20:04.610Z,3.80
2023-04-27T12:22:50.229Z,3.42
2023-04-27T12:25:36.684Z,2.67
2023-04-27T12:28:21.787Z,2.55
2023-04-27T12:31:08.631Z,4.57
2023-04-27T12:33:54.173Z,3.10
2023-04-27T12:36:39.437Z,3.10
2023-04-27T12:39:27.354Z,2.75
2023-04-27T12:42:12.530Z,2.78
2023-04-27T12:44:58.374Z,3.00
2023-04-27T12:47:58.656Z,3.42
2023-04-27T12:50:47.414Z,3.28
2023-04-27T12:53:32.780Z,3.45
2023-04-27T12:56:18.498Z,3.05
2023-04-27T12:59:04.091Z,3.13
2023-04-27T13:01:49.650Z,3.03
2023-04-27T13:04:36.222Z,4.43
2023-04-27T13:07:21.462Z,4.90
2023-04-27T13:10:08.511Z,3.95
2023-04-27T13:12:54.496Z,3.25
2023-04-27T13:15:40.163Z,6.90
2023-04-27T13:18:26.127Z,4.03
2023-04-27T13:21:11.589Z,3.60
2023-04-27T13:23:59.572Z,3.28
2023-04-27T13:26:45.451Z,2.70
2023-04-27T13:29:31.486Z,3.22
2023-04-27T13:32:16.829Z,4.03
2023-04-27T13:35:03.821Z,3.90
2023-04-27T13:37:49.360Z,2.92
2023-04-27T13:40:34.883Z,3.63
2023-04-27T13:43:19.837Z,8.60
2023-04-27T13:46:05.707Z,3.70
2023-04-27T13:48:51.053Z,3.97
2023-04-27T13:51:36.849Z,6.03
2023-04-27T13:54:22.210Z,5.82
2023-04-27T13:57:07.446Z,4.57
2023-04-27T13:59:53.238Z,3.28
2023-04-27T14:02:39.531Z,3.22
2023-04-27T14:05:24.942Z,3.53
2023-04-27T14:08:10.817Z,5.53
2023-04-27T14:10:56.224Z,5.13
2023-04-27T14:13:43.053Z,3.97
2023-04-27T14:16:28.586Z,4.18
2023-04-27T14:19:16.301Z,4.72
2023-04-27T14:22:01.939Z,4.95
2023-04-27T14:24:47.318Z,4.68
2023-04-27T14:27:32.769Z,4.60
2023-04-27T14:30:18.432Z,4.20
2023-04-27T14:33:03.885Z,4.10
2023-04-27T14:35:49.419Z,6.18
2023-04-27T14:38:34.802Z,5.07
2023-04-27T14:41:20.020Z,4.28
2023-04-27T14:44:07.674Z,9.52
2023-04-27T14:46:53.988Z,6.50
2023-04-27T14:49:39.131Z,6.07
2023-04-27T14:52:24.558Z,4.35
2023-04-27T14:55:11.445Z,3.83
2023-04-27T14:57:56.887Z,3.58
2023-04-27T15:00:42.342Z,3.60
2023-04-27T15:03:28.203Z,3.63
2023-04-27T15:06:13.903Z,5.82
2023-04-27T15:08:59.356Z,4.45
2023-04-27T15:11:45.067Z,4.15
2023-04-27T15:14:30.135Z,4.55
2023-04-27T15:17:15.538Z,4.30
2023-04-27T15:20:01.345Z,3.75
2023-04-27T15:22:47.193Z,4.32
2023-04-27T15:25:32.685Z,4.55
2023-04-27T15:28:18.682Z,4.03
2023-04-27T15:31:03.830Z,3.85
2023-04-27T15:33:49.124Z,3.78
2023-04-27T15:36:34.521Z,4.95
2023-04-27T15:39:19.714Z,4.20
2023-04-27T15:42:05.448Z,3.70
2023-04-27T15:44:51.248Z,5.18
2023-04-27T15:47:36.489Z,7.80
2023-04-27T15:50:22.528Z,5.55
2023-04-27T15:53:07.544Z,7.85
2023-04-27T15:55:52.893Z,8.77
2023-04-27T15:58:38.325Z,6.65
2023-04-27T16:01:23.740Z,6.72
2023-04-27T16:04:09.348Z,5.28
2023-04-27T16:06:55.026Z,5.68
2023-04-27T16:09:40.511Z,4.50
2023-04-27T16:12:26.411Z,5.93
2023-04-27T16:15:11.991Z,5.13
2023-04-27T16:17:57.325Z,10.80
2023-04-27T16:20:42.731Z,7.10
2023-04-27T16:23:28.467Z,7.03
2023-04-27T16:26:13.568Z,5.32
2023-04-27T16:28:58.979Z,6.40
2023-04-27T16:31:44.869Z,6.47
2023-04-27T16:34:31.362Z,5.18
2023-04-27T16:37:16.704Z,5.57
2023-04-27T16:40:07.006Z,8.68
2023-04-27T16:42:52.630Z,7.85
2023-04-27T16:45:38.823Z,8.65
2023-04-27T16:48:24.301Z,8.93
2023-04-27T16:51:10.718Z,8.77
2023-04-27T16:53:58.323Z,34.45
2023-04-27T16:56:45.960Z,22.92
2023-04-27T16:59:31.431Z,36.85
2023-04-27T17:02:24.363Z,29.40
2023-04-27T17:05:11.064Z,10.00
2023-04-27T17:07:56.668Z,10.38
2023-04-27T17:10:41.934Z,8.13
2023-04-27T17:13:27.219Z,10.90
2023-04-27T17:16:13.640Z,9.57
2023-04-27T17:18:58.845Z,8.05
2023-04-27T17:21:43.928Z,9.32
2023-04-27T17:24:29.445Z,10.10
2023-04-27T17:27:14.971Z,8.68
2023-04-27T17:30:00.680Z,7.53
2023-04-27T17:32:45.823Z,6.80
2023-04-27T17:35:31.261Z,7.50
2023-04-27T17:38:16.790Z,7.55
2023-04-27T17:41:02.004Z,11.13
2023-04-27T17:43:47.114Z,12.23
2023-04-27T17:46:32.497Z,12.50
2023-04-27T17:49:19.105Z,18.63
2023-04-27T17:52:05.165Z,19.67
2023-04-27T17:54:50.859Z,18.80
2023-04-27T17:57:36.287Z,14.35
2023-04-27T18:00:24.055Z,8.25
2023-04-27T18:03:09.805Z,7.47
2023-04-27T18:05:55.800Z,6.88
2023-04-27T18:08:41.297Z,20.35
2023-04-27T18:11:27.478Z,18.95
2023-04-27T18:14:12.874Z,13.77
2023-04-27T18:16:59.936Z,12.45
2023-04-27T18:19:55.328Z,10.48
2023-04-27T18:22:46.555Z,14.30
2023-04-27T18:25:32.098Z,14.30
2023-04-27T18:28:17.571Z,38.83
2023-04-27T18:31:02.675Z,13.18
2023-04-27T18:33:49.131Z,9.65
2023-04-27T18:36:34.380Z,11.93
2023-04-27T18:39:20.754Z,8.30
2023-04-27T18:42:06.571Z,7.78
2023-04-27T18:45:00.391Z,6.07
2023-04-27T18:47:46.207Z,8.43
2023-04-27T18:50:31.704Z,8.85
2023-04-27T18:53:17.446Z,8.48
2023-04-27T18:56:09.500Z,8.27
2023-04-27T18:58:56.016Z,8.00
2023-04-27T19:01:41.451Z,7.35
2023-04-27T19:04:27.353Z,9.00
2023-04-27T19:07:12.850Z,12.50
2023-04-27T19:09:58.366Z,15.00
2023-04-27T19:12:43.659Z,15.20
2023-04-27T19:15:29.027Z,31.33
2023-04-27T19:18:15.132Z,20.75
2023-04-27T19:21:00.951Z,16.65
2023-04-27T19:23:46.252Z,21.88
2023-04-27T19:26:32.252Z,32.25
2023-04-27T19:29:18.060Z,35.13
2023-04-27T19:32:05.876Z,25.52
2023-04-27T19:34:51.583Z,17.23
2023-04-27T19:37:37.180Z,13.63
2023-04-27T19:40:22.570Z,13.70
2023-04-27T19:43:09.728Z,19.38
2023-04-27T19:45:54.882Z,18.58
2023-04-27T19:48:42.353Z,13.10
2023-04-27T19:51:29.263Z,14.93
2023-04-27T19:54:14.832Z,18.73
2023-04-27T19:57:01.281Z,15.98
2023-04-27T19:59:47.922Z,13.48
2023-04-27T20:02:34.554Z,12.80
2023-04-27T20:05:21.421Z,9.90
2023-04-27T20:08:08.582Z,8.07
2023-04-27T20:10:54.169Z,9.32
2023-04-27T20:13:39.177Z,9.40
2023-04-27T20:16:25.983Z,9.88
2023-04-27T20:19:12.409Z,9.82
2023-04-27T20:21:57.764Z,8.75
2023-04-27T20:24:43.731Z,8.85
2023-04-27T20:27:29.199Z,10.07
2023-04-27T20:30:14.748Z,8.60
2023-04-27T20:33:01.487Z,7.85
2023-04-27T20:35:47.222Z,7.90
2023-04-27T20:38:32.711Z,9.38
2023-04-27T20:41:17.894Z,7.10
2023-04-27T20:44:03.485Z,6.95
2023-04-27T20:46:49.087Z,8.38
2023-04-27T20:49:35.748Z,7.53
2023-04-27T20:52:21.259Z,7.13
2023-04-27T20:55:06.904Z,11.32
2023-04-27T20:57:51.951Z,10.10
2023-04-27T21:00:37.431Z,10.52
2023-04-27T21:03:22.971Z,7.10
2023-04-27T21:06:08.207Z,7.07
2023-04-27T21:08:53.536Z,6.20
2023-04-27T21:11:38.908Z,6.78
2023-04-27T21:14:24.440Z,6.32
2023-04-27T21:17:10.314Z,5.18
2023-04-27T21:19:58.044Z,5.50
2023-04-27T21:22:43.153Z,6.00
2023-04-27T21:25:28.673Z,6.00
2023-04-27T21:28:14.342Z,5.57
2023-04-27T21:30:59.265Z,6.55
2023-04-27T21:33:44.575Z,5.72
2023-04-27T21:36:30.374Z,6.30
2023-04-27T21:39:15.897Z,6.30
2023-04-27T21:42:01.340Z,5.22
2023-04-27T21:44:47.165Z,5.47
2023-04-27T21:47:32.597Z,6.30
2023-04-27T21:50:18.179Z,6.10
2023-04-27T21:53:03.185Z,5.85
2023-04-27T21:55:49.684Z,5.85
2023-04-27T21:58:34.681Z,5.45
2023-04-27T22:01:19.996Z,5.18
2023-04-27T22:04:06.921Z,6.13
2023-04-27T22:06:52.635Z,5.70
2023-04-27T22:09:38.017Z,5.50
2023-04-27T22:12:23.068Z,5.65
2023-04-27T22:15:09.050Z,5.05
2023-04-27T22:17:55.836Z,6.35
2023-04-27T22:20:42.424Z,4.70
2023-04-27T22:23:31.260Z,5.28
2023-04-27T22:26:16.729Z,5.00
2023-04-27T22:29:01.559Z,5.22
2023-04-27T22:31:47.043Z,5.65
2023-04-27T22:34:32.480Z,6.28
2023-04-27T22:37:17.997Z,5.32
2023-04-27T22:40:05.985Z,5.82
2023-04-27T22:42:51.457Z,5.85
2023-04-27T22:45:38.665Z,4.45
2023-04-27T22:48:24.501Z,5.22
2023-04-27T22:51:10.184Z,5.50
2023-04-27T22:53:55.157Z,5.03
2023-04-27T22:56:41.174Z,5.80
2023-04-27T22:59:26.616Z,5.43
2023-04-27T23:02:12.088Z,5.75
2023-04-27T23:04:58.739Z,5.10
2023-04-27T23:07:43.988Z,5.70
2023-04-27T23:10:31.168Z,5.95
2023-04-27T23:13:17.756Z,5.55
2023-04-27T23:16:03.321Z,5.95
2023-04-27T23:18:48.476Z,4.65
2023-04-27T23:21:33.757Z,5.18
2023-04-27T23:24:19.136Z,5.85
2023-04-27T23:27:04.517Z,5.35
2023-04-27T23:29:50.294Z,6.25
2023-04-27T23:32:36.732Z,5.00
2023-04-27T23:35:22.365Z,6.82
2023-04-27T23:38:07.341Z,5.57
2023-04-27T23:40:52.739Z,5.13
2023-04-27T23:43:38.212Z,5.78
2023-04-27T23:46:23.539Z,5.13
2023-04-27T23:49:08.872Z,5.43
2023-04-27T23:51:54.137Z,5.10
2023-04-27T23:54:39.500Z,5.22
2023-04-27T23:57:24.927Z,4.43
